Time;durP1;ratioP1;P1;durP2;ratioP2;P2;SDS_P1;SDS_P2;PMS_P1;PMS_P2;Temp;Humidity;BMP_temperature;BMP_pressure;BME280_temperature;BME280_humidity;BME280_pressure;Samples;Min_cycle;Max_cycle;Signal;HPM_P1;HPM_P2
2022/02/24 00:00:56;;;;;;;3.55;1.60;;;;;13.80;101444.00;;;;5033019;28;20196;-87
2022/02/24 00:03:26;;;;;;;3.92;1.38;;;;;13.80;101447.00;;;;5043737;28;20200;-86
2022/02/24 00:05:56;;;;;;;2.30;0.90;;;;;13.80;101441.00;;;;5047228;28;20201;-85
2022/02/24 00:08:23;;;;;;;4.95;1.45;;;;;13.80;101439.00;;;;5047921;28;20246;-86
2022/02/24 00:10:52;;;;;;;4.60;1.33;;;;;13.80;101430.00;;;;5037791;28;20210;-87
2022/02/24 00:13:19;;;;;;;4.07;1.02;;;;;13.80;101431.00;;;;5031347;28;20232;-85
2022/02/24 00:15:46;;;;;;;2.58;0.90;;;;;13.80;101424.00;;;;5041952;28;20191;-86
2022/02/24 00:18:14;;;;;;;8.23;1.70;;;;;13.80;101413.00;;;;5044117;28;20227;-86
2022/02/24 00:20:42;;;;;;;5.25;1.15;;;;;13.70;101406.00;;;;5044363;28;20203;-84
2022/02/24 00:23:10;;;;;;;3.90;1.38;;;;;13.80;101406.00;;;;5049566;28;20196;-85
2022/02/24 00:25:37;;;;;;;7.78;1.52;;;;;13.80;101395.00;;;;5051583;28;20203;-87
2022/02/24 00:28:04;;;;;;;4.90;1.15;;;;;13.80;101385.00;;;;5050752;28;20227;-87
2022/02/24 00:30:31;;;;;;;2.60;1.02;;;;;13.80;101395.00;;;;5051049;28;20573;-87
2022/02/24 00:32:59;;;;;;;4.63;1.35;;;;;13.80;101382.00;;;;5045183;28;20224;-85
2022/02/24 00:35:26;;;;;;;9.43;1.25;;;;;13.80;101384.00;;;;5041434;28;20591;-85
2022/02/24 00:37:55;;;;;;;3.60;1.08;;;;;13.80;101377.00;;;;5044609;28;20206;-86
2022/02/24 00:40:22;;;;;;;4.13;0.88;;;;;13.80;101383.00;;;;5045012;28;20279;-86
2022/02/24 00:42:50;;;;;;;3.65;1.00;;;;;13.80;101382.00;;;;5048113;28;20197;-87
2022/02/24 00:45:17;;;;;;;5.60;1.17;;;;;13.80;101374.00;;;;5033007;28;20212;-86
2022/02/24 00:47:45;;;;;;;3.28;0.90;;;;;13.70;101369.00;;;;5041708;28;20195;-87
2022/02/24 00:50:14;;;;;;;5.60;0.88;;;;;13.80;101369.00;;;;5043885;28;20380;-85
2022/02/24 00:52:41;;;;;;;6.07;1.83;;;;;13.80;101372.00;;;;5038288;28;20197;-87
2022/02/24 00:55:10;;;;;;;2.30;1.23;;;;;13.70;101371.00;;;;5031021;28;20188;-84
2022/02/24 00:57:40;;;;;;;4.38;1.33;;;;;13.70;101356.00;;;;5050511;28;20203;-87
2022/02/24 01:00:08;;;;;;;3.30;0.82;;;;;13.80;101365.00;;;;5045710;28;20220;-86
2022/02/24 01:02:36;;;;;;;4.93;1.15;;;;;13.70;101360.00;;;;5039712;28;20219;-87
2022/02/24 01:05:04;;;;;;;3.25;0.98;;;;;13.80;101358.00;;;;5050052;28;20672;-87
2022/02/24 01:07:32;;;;;;;3.13;1.25;;;;;13.80;101347.00;;;;5048623;28;20207;-87
2022/02/24 01:10:01;;;;;;;4.03;1.38;;;;;13.80;101337.00;;;;5030773;28;20231;-87
2022/02/24 01:12:30;;;;;;;7.97;1.48;;;;;13.80;101329.00;;;;5033235;28;20578;-87
2022/02/24 01:15:03;;;;;;;3.85;0.90;;;;;13.80;101320.00;;;;5042426;28;20203;-88
2022/02/24 01:17:30;;;;;;;4.25;1.00;;;;;13.80;101313.00;;;;5031149;28;20278;-88
2022/02/24 01:19:58;;;;;;;3.28;0.90;;;;;13.80;101308.00;;;;5046797;28;20199;-86
2022/02/24 01:22:25;;;;;;;3.28;0.80;;;;;13.80;101306.00;;;;5033614;28;20200;-87
2022/02/24 01:24:52;;;;;;;4.95;1.23;;;;;13.80;101308.00;;;;5046931;28;20193;-87
2022/02/24 01:27:20;;;;;;;5.30;1.40;;;;;13.80;101303.00;;;;5044586;28;20712;-87
2022/02/24 01:29:48;;;;;;;5.97;1.85;;;;;13.80;101295.00;;;;5049977;28;20223;-88
2022/02/24 01:32:16;;;;;;;1.75;0.70;;;;;13.80;101298.00;;;;5040377;28;20199;-88
2022/02/24 01:34:44;;;;;;;6.03;1.33;;;;;13.80;101295.00;;;;5050043;28;20199;-87
2022/02/24 01:37:11;;;;;;;3.97;1.17;;;;;13.80;101291.00;;;;5043150;28;20195;-88
2022/02/24 01:39:38;;;;;;;3.53;1.25;;;;;13.90;101283.00;;;;5048648;28;20210;-88
2022/02/24 01:42:06;;;;;;;8.95;1.23;;;;;13.90;101279.00;;;;5050136;28;20199;-87
2022/02/24 01:44:41;;;;;;;3.63;1.23;;;;;13.80;101271.00;;;;5037831;28;20196;-88
2022/02/24 01:47:10;;;;;;;3.85;1.42;;;;;13.80;101272.00;;;;5047413;28;20252;-87
2022/02/24 01:49:38;;;;;;;4.00;1.30;;;;;13.90;101270.00;;;;5041464;28;20219;-87
2022/02/24 01:52:07;;;;;;;2.97;1.23;;;;;13.90;101263.00;;;;5040494;28;20195;-86
2022/02/24 01:54:35;;;;;;;5.15;1.70;;;;;13.90;101255.00;;;;5044553;28;20629;-88
2022/02/24 01:57:04;;;;;;;7.53;1.60;;;;;13.90;101258.00;;;;5042566;28;20197;-86
2022/02/24 01:59:32;;;;;;;2.63;1.30;;;;;13.90;101252.00;;;;5045488;28;20208;-86
2022/02/24 02:01:59;;;;;;;4.88;1.63;;;;;13.90;101243.00;;;;5044698;28;20560;-88
2022/02/24 02:04:28;;;;;;;3.80;1.38;;;;;13.90;101233.00;;;;5048448;28;20615;-89
2022/02/24 02:06:55;;;;;;;6.93;1.90;;;;;13.90;101237.00;;;;5048932;28;20200;-88
2022/02/24 02:09:24;;;;;;;4.85;1.45;;;;;13.90;101237.00;;;;5049748;28;20267;-88
2022/02/24 02:11:51;;;;;;;6.07;1.90;;;;;13.90;101229.00;;;;5050261;28;20586;-86
2022/02/24 02:14:18;;;;;;;5.50;1.90;;;;;13.90;101228.00;;;;5040516;28;20196;-88
2022/02/24 02:16:47;;;;;;;4.72;1.25;;;;;13.90;101227.00;;;;5042922;28;20216;-85
2022/02/24 02:19:14;;;;;;;4.15;1.42;;;;;13.90;101219.00;;;;5041138;28;20202;-86
2022/02/24 02:21:44;;;;;;;4.22;1.83;;;;;13.80;101214.00;;;;5036161;28;20196;-87
2022/02/24 02:24:13;;;;;;;3.17;1.17;;;;;13.90;101209.00;;;;5041907;28;20203;-87
2022/02/24 02:26:41;;;;;;;5.22;1.83;;;;;13.90;101211.00;;;;5049040;28;20196;-87
2022/02/24 02:29:12;;;;;;;4.32;1.38;;;;;13.90;101202.00;;;;5049685;28;21231;-87
2022/02/24 02:31:40;;;;;;;3.08;0.98;;;;;13.90;101205.00;;;;5044272;28;20192;-87
2022/02/24 02:34:10;;;;;;;2.40;1.13;;;;;13.90;101194.00;;;;5037113;28;20609;-87
2022/02/24 02:36:39;;;;;;;4.70;1.25;;;;;13.90;101199.00;;;;5048017;28;20585;-88
2022/02/24 02:39:10;;;;;;;5.93;1.70;;;;;13.80;101194.00;;;;5048003;28;20206;-87
2022/02/24 02:41:39;;;;;;;4.40;1.55;;;;;13.90;101188.00;;;;5030045;28;20197;-87
2022/02/24 02:44:08;;;;;;;4.68;1.73;;;;;13.90;101192.00;;;;5030272;28;20188;-88
2022/02/24 02:46:36;;;;;;;3.58;1.75;;;;;13.90;101182.00;;;;5040499;28;20238;-88
2022/02/24 02:49:03;;;;;;;2.97;1.42;;;;;13.90;101183.00;;;;5039245;28;20712;-87
2022/02/24 02:51:31;;;;;;;4.03;1.20;;;;;13.90;101179.00;;;;5033259;28;20203;-87
2022/02/24 02:53:58;;;;;;;2.53;1.20;;;;;13.90;101164.00;;;;5029593;28;20200;-87
2022/02/24 02:56:28;;;;;;;2.88;1.08;;;;;13.90;101158.00;;;;5041230;28;20207;-88
2022/02/24 02:58:56;;;;;;;5.93;1.63;;;;;13.90;101160.00;;;;5043892;28;20206;-88
2022/02/24 03:01:23;;;;;;;3.97;1.67;;;;;13.90;101150.00;;;;5048481;28;20194;-88
2022/02/24 03:03:51;;;;;;;5.13;1.50;;;;;13.90;101155.00;;;;5032035;28;20200;-88
2022/02/24 03:06:19;;;;;;;5.20;1.50;;;;;13.90;101157.00;;;;5030584;28;20673;-88
2022/02/24 03:08:48;;;;;;;4.78;1.20;;;;;13.90;101148.00;;;;5042512;28;20199;-88
2022/02/24 03:11:15;;;;;;;3.03;1.10;;;;;13.90;101150.00;;;;5069261;28;20195;-89
2022/02/24 03:13:44;;;;;;;6.78;1.55;;;;;13.90;101147.00;;;;5042164;28;20210;-88
2022/02/24 03:16:11;;;;;;;2.80;0.93;;;;;13.90;101143.00;;;;5032762;28;20196;-88
2022/02/24 03:18:38;;;;;;;4.15;1.17;;;;;13.90;101130.00;;;;5038803;28;20230;-87
2022/02/24 03:21:08;;;;;;;3.88;1.73;;;;;13.90;101133.00;;;;5049216;28;20196;-88
2022/02/24 03:23:37;;;;;;;6.30;1.48;;;;;13.90;101122.00;;;;5048306;28;20666;-88
2022/02/24 03:26:04;;;;;;;6.43;2.20;;;;;13.90;101126.00;;;;5048174;28;20661;-88
2022/02/24 03:28:32;;;;;;;5.32;1.50;;;;;13.90;101126.00;;;;5044504;28;20210;-89
2022/02/24 03:31:01;;;;;;;3.50;1.02;;;;;13.90;101115.00;;;;5029242;28;20196;-88
2022/02/24 03:33:28;;;;;;;2.00;0.90;;;;;13.90;101110.00;;;;5045863;28;20218;-87
2022/02/24 03:35:56;;;;;;;4.68;1.27;;;;;13.90;101103.00;;;;5040674;28;20204;-88
2022/02/24 03:38:23;;;;;;;3.58;1.38;;;;;13.90;101096.00;;;;5067341;28;20198;-89
2022/02/24 03:40:50;;;;;;;3.22;1.20;;;;;13.90;101091.00;;;;5031538;28;20203;-89
2022/02/24 03:43:19;;;;;;;4.80;1.45;;;;;13.90;101093.00;;;;5038544;28;20212;-88
2022/02/24 03:45:48;;;;;;;6.57;1.52;;;;;13.90;101088.00;;;;5047494;28;20589;-88
2022/02/24 03:48:16;;;;;;;4.32;1.73;;;;;13.90;101087.00;;;;5043105;28;20230;-88
2022/02/24 03:50:44;;;;;;;4.82;1.33;;;;;13.90;101082.00;;;;5041332;28;20708;-88
2022/02/24 03:53:11;;;;;;;2.78;1.50;;;;;13.90;101076.00;;;;5032839;28;20686;-88
2022/02/24 03:55:38;;;;;;;4.97;1.30;;;;;13.90;101071.00;;;;5046274;28;20206;-87
2022/02/24 03:58:05;;;;;;;2.10;0.88;;;;;13.90;101065.00;;;;5052169;28;20192;-87
2022/02/24 04:00:33;;;;;;;5.90;1.75;;;;;13.90;101069.00;;;;5033286;28;20200;-88
2022/02/24 04:03:00;;;;;;;2.83;1.20;;;;;13.90;101066.00;;;;5044454;28;20220;-88
2022/02/24 04:05:29;;;;;;;4.32;0.90;;;;;13.90;101057.00;;;;5042734;28;20196;-87
2022/02/24 04:07:56;;;;;;;6.68;1.50;;;;;13.90;101064.00;;;;5043249;28;20195;-88
2022/02/24 04:10:23;;;;;;;6.93;1.50;;;;;13.90;101059.00;;;;5047636;28;20220;-88
2022/02/24 04:12:51;;;;;;;3.40;1.35;;;;;13.90;101061.00;;;;5042087;28;20564;-88
2022/02/24 04:15:18;;;;;;;5.25;0.98;;;;;13.90;101054.00;;;;5057586;28;20204;-86
2022/02/24 04:17:45;;;;;;;2.13;0.93;;;;;13.90;101059.00;;;;5043057;28;20224;-89
2022/02/24 04:20:14;;;;;;;4.65;1.58;;;;;13.80;101051.00;;;;5048021;28;20412;-88
2022/02/24 04:22:43;;;;;;;3.47;1.40;;;;;13.80;101053.00;;;;5042885;28;20202;-88
2022/02/24 04:25:10;;;;;;;5.32;1.55;;;;;13.90;101059.00;;;;5051196;28;20202;-88
2022/02/24 04:27:45;;;;;;;4.93;1.50;;;;;13.80;101061.00;;;;5052116;28;20192;-85
2022/02/24 04:30:12;;;;;;;3.22;1.20;;;;;13.80;101052.00;;;;5051166;28;20711;-86
2022/02/24 04:32:41;;;;;;;6.13;1.42;;;;;13.80;101040.00;;;;5051584;28;20200;-87
2022/02/24 04:35:10;;;;;;;2.65;1.25;;;;;13.80;101041.00;;;;5041462;28;20203;-87
2022/02/24 04:37:37;;;;;;;2.70;1.30;;;;;13.80;101042.00;;;;5052294;28;20199;-88
2022/02/24 04:40:08;;;;;;;4.18;1.98;;;;;13.80;101037.00;;;;5052485;28;20195;-87
2022/02/24 04:42:36;;;;;;;3.47;1.55;;;;;13.80;101031.00;;;;5032754;28;20196;-87
2022/02/24 04:45:03;;;;;;;3.80;1.48;;;;;13.80;101033.00;;;;5032868;28;20703;-88
2022/02/24 04:47:31;;;;;;;1.95;1.15;;;;;13.80;101032.00;;;;5046159;28;20199;-87
2022/02/24 04:49:58;;;;;;;5.15;1.55;;;;;13.80;101029.00;;;;5050580;28;20226;-88
2022/02/24 04:52:25;;;;;;;4.18;1.58;;;;;13.80;101025.00;;;;5049224;28;20590;-88
2022/02/24 04:54:52;;;;;;;4.25;1.50;;;;;13.80;101034.00;;;;5051224;28;20686;-89
2022/02/24 04:57:21;;;;;;;3.92;1.30;;;;;13.80;101025.00;;;;5034068;28;20666;-86
2022/02/24 04:59:48;;;;;;;7.63;2.13;;;;;13.80;101026.00;;;;5037151;28;20203;-87
2022/02/24 05:02:17;;;;;;;3.15;2.00;;;;;13.80;101016.00;;;;5049913;28;20200;-88
2022/02/24 05:04:45;;;;;;;3.80;1.48;;;;;13.80;101016.00;;;;5044371;28;20200;-88
2022/02/24 05:07:12;;;;;;;6.63;1.55;;;;;13.90;101018.00;;;;5039048;28;20323;-88
2022/02/24 05:09:42;;;;;;;3.85;1.63;;;;;13.80;101008.00;;;;5048463;28;20230;-88
2022/02/24 05:12:10;;;;;;;3.13;1.15;;;;;13.80;101003.00;;;;5051437;28;20295;-86
2022/02/24 05:14:39;;;;;;;3.33;1.63;;;;;13.80;101003.00;;;;5041256;28;20226;-88
2022/02/24 05:17:06;;;;;;;4.82;1.60;;;;;13.80;100996.00;;;;5044341;28;20243;-89
2022/02/24 05:19:34;;;;;;;4.68;1.50;;;;;13.90;100994.00;;;;5041192;28;20201;-88
2022/02/24 05:22:02;;;;;;;3.58;1.33;;;;;13.90;100995.00;;;;5050381;28;20198;-89
2022/02/24 05:24:29;;;;;;;4.57;1.50;;;;;13.90;100990.00;;;;5035125;28;20196;-87
2022/02/24 05:26:57;;;;;;;2.75;1.50;;;;;13.90;100984.00;;;;5049895;28;20204;-88
2022/02/24 05:29:24;;;;;;;3.38;1.40;;;;;13.90;100985.00;;;;5048842;28;20851;-88
2022/02/24 05:31:52;;;;;;;1.92;1.08;;;;;13.90;100972.00;;;;5049778;28;20192;-88
2022/02/24 05:34:20;;;;;;;4.07;1.50;;;;;13.90;100967.00;;;;5047709;28;20200;-88
2022/02/24 05:36:47;;;;;;;3.10;1.50;;;;;13.90;100968.00;;;;5050151;28;20195;-85
2022/02/24 05:39:15;;;;;;;5.75;1.35;;;;;13.80;100964.00;;;;5049554;28;20195;-89
2022/02/24 05:41:42;;;;;;;4.47;1.30;;;;;13.90;100950.00;;;;5038538;28;20284;-88
2022/02/24 05:44:09;;;;;;;3.83;1.35;;;;;13.90;100953.00;;;;5030604;28;20204;-87
2022/02/24 05:46:36;;;;;;;3.22;1.10;;;;;13.90;100955.00;;;;5047978;28;20614;-88
2022/02/24 05:49:05;;;;;;;7.53;1.80;;;;;13.80;100943.00;;;;5048533;28;20204;-88
2022/02/24 05:51:32;;;;;;;7.30;1.38;;;;;13.90;100944.00;;;;5045344;28;20601;-87
2022/02/24 05:54:00;;;;;;;4.13;1.13;;;;;13.90;100938.00;;;;5038779;28;20677;-88
2022/02/24 05:56:28;;;;;;;2.15;0.77;;;;;13.90;100933.00;;;;5043814;28;20188;-89
2022/02/24 05:58:55;;;;;;;5.32;1.25;;;;;13.80;100925.00;;;;5048418;28;20200;-88
2022/02/24 06:01:23;;;;;;;4.57;1.25;;;;;13.90;100928.00;;;;5041905;28;20200;-86
2022/02/24 06:03:50;;;;;;;4.68;1.10;;;;;13.90;100932.00;;;;5044597;28;20207;-87
2022/02/24 06:06:18;;;;;;;5.20;1.35;;;;;13.80;100930.00;;;;5048053;28;20196;-84
2022/02/24 06:08:46;;;;;;;3.08;1.30;;;;;13.80;100926.00;;;;5039610;28;20191;-83
2022/02/24 06:11:13;;;;;;;3.45;1.77;;;;;13.80;100925.00;;;;5048745;28;20230;-87
2022/02/24 06:13:41;;;;;;;3.33;1.23;;;;;13.80;100920.00;;;;5043269;28;20196;-84
2022/02/24 06:16:08;;;;;;;5.32;1.20;;;;;13.80;100919.00;;;;5049121;28;20219;-82
2022/02/24 06:18:36;;;;;;;3.60;1.38;;;;;13.80;100922.00;;;;5041295;28;20227;-83
2022/02/24 06:21:03;;;;;;;3.83;1.60;;;;;13.90;100915.00;;;;5048740;28;20469;-84
2022/02/24 06:23:32;;;;;;;2.75;1.30;;;;;13.90;100908.00;;;;5042245;28;20200;-84
2022/02/24 06:25:59;;;;;;;3.10;1.13;;;;;13.90;100917.00;;;;5035176;28;20200;-83
2022/02/24 06:28:26;;;;;;;4.22;1.80;;;;;13.90;100901.00;;;;5037581;28;20203;-83
2022/02/24 06:30:53;;;;;;;4.32;1.98;;;;;13.90;100897.00;;;;5043919;28;20232;-83
2022/02/24 06:33:21;;;;;;;2.47;1.20;;;;;13.80;100899.00;;;;5038998;28;20226;-82
2022/02/24 06:35:48;;;;;;;3.25;1.35;;;;;13.90;100901.00;;;;5042265;28;20199;-82
2022/02/24 06:38:15;;;;;;;2.78;1.23;;;;;13.90;100898.00;;;;5059346;28;20198;-81
2022/02/24 06:40:44;;;;;;;4.35;1.30;;;;;13.80;100894.00;;;;5051248;28;20195;-86
2022/02/24 06:43:11;;;;;;;3.38;1.30;;;;;13.80;100898.00;;;;5036077;28;20235;-80
2022/02/24 06:45:38;;;;;;;2.60;1.13;;;;;13.80;100887.00;;;;5028689;28;20216;-81
2022/02/24 06:48:06;;;;;;;2.88;1.10;;;;;13.80;100892.00;;;;5029425;28;20238;-81
2022/02/24 06:50:34;;;;;;;3.83;1.30;;;;;13.80;100878.00;;;;5063235;28;20249;-81
2022/02/24 06:53:01;;;;;;;3.60;1.42;;;;;13.80;100878.00;;;;5063761;28;20780;-81
2022/02/24 06:55:28;;;;;;;3.53;1.05;;;;;13.90;100880.00;;;;5049367;28;20194;-78
2022/02/24 06:57:57;;;;;;;4.90;1.73;;;;;13.80;100869.00;;;;5046737;28;20215;-79
2022/02/24 07:00:24;;;;;;;6.10;1.45;;;;;13.90;100865.00;;;;5030044;28;20200;-79
2022/02/24 07:02:52;;;;;;;4.22;1.73;;;;;13.90;100872.00;;;;5035014;28;20196;-79
2022/02/24 07:05:20;;;;;;;5.18;1.02;;;;;13.90;100866.00;;;;5050332;28;20199;-79
2022/02/24 07:07:47;;;;;;;7.00;1.52;;;;;13.90;100865.00;;;;5049120;28;20673;-79
2022/02/24 07:10:15;;;;;;;4.32;1.20;;;;;13.90;100864.00;;;;5048949;28;20277;-80
2022/02/24 07:12:43;;;;;;;4.38;1.42;;;;;13.90;100865.00;;;;5029726;28;20204;-79
2022/02/24 07:15:14;;;;;;;2.55;1.17;;;;;13.90;100850.00;;;;5042545;28;20665;-80
2022/02/24 07:17:42;;;;;;;3.13;1.17;;;;;14.00;100850.00;;;;5050287;28;20223;-80
2022/02/24 07:20:10;;;;;;;3.40;1.35;;;;;14.00;100846.00;;;;5047874;28;20290;-80
2022/02/24 07:22:38;;;;;;;3.35;1.30;;;;;14.00;100834.00;;;;5049350;28;20207;-80
2022/02/24 07:25:06;;;;;;;3.10;1.30;;;;;14.00;100837.00;;;;5048660;28;20203;-80
2022/02/24 07:27:34;;;;;;;4.57;1.40;;;;;14.00;100825.00;;;;5048516;28;20212;-80
2022/02/24 07:30:02;;;;;;;2.45;1.45;;;;;14.00;100831.00;;;;5050494;28;20202;-79
2022/02/24 07:32:31;;;;;;;2.92;1.00;;;;;13.90;100828.00;;;;5051854;28;20302;-81
2022/02/24 07:34:58;;;;;;;3.90;1.10;;;;;14.00;100826.00;;;;5037462;28;20199;-80
2022/02/24 07:37:25;;;;;;;2.50;1.15;;;;;14.00;100824.00;;;;5032679;28;20263;-80
2022/02/24 07:39:52;;;;;;;6.57;1.30;;;;;14.00;100816.00;;;;5032139;28;20208;-79
2022/02/24 07:42:20;;;;;;;5.20;1.42;;;;;14.00;100816.00;;;;5032053;28;20200;-80
2022/02/24 07:44:47;;;;;;;3.95;1.30;;;;;14.00;100815.00;;;;5044285;28;20204;-79
2022/02/24 07:47:15;;;;;;;3.22;0.70;;;;;14.00;100816.00;;;;5052998;28;20572;-79
2022/02/24 07:49:44;;;;;;;4.38;1.35;;;;;14.00;100809.00;;;;5063738;28;20257;-80
2022/02/24 07:52:11;;;;;;;4.07;1.13;;;;;14.00;100810.00;;;;5049011;28;20437;-80
2022/02/24 07:54:39;;;;;;;3.20;1.75;;;;;14.00;100809.00;;;;5052486;28;20206;-80
2022/02/24 07:57:06;;;;;;;2.00;0.82;;;;;14.00;100802.00;;;;5047818;28;20203;-79
2022/02/24 07:59:34;;;;;;;3.88;1.00;;;;;14.10;100800.00;;;;5043856;28;20213;-78
2022/02/24 08:02:01;;;;;;;5.18;1.17;;;;;14.10;100797.00;;;;5040366;28;20196;-78
2022/02/24 08:04:29;;;;;;;2.88;1.02;;;;;14.10;100799.00;;;;5043975;28;20203;-79
2022/02/24 08:06:57;;;;;;;1.58;0.60;;;;;14.10;100790.00;;;;5032338;28;20890;-79
2022/02/24 08:09:25;;;;;;;6.22;1.10;;;;;14.10;100781.00;;;;5033053;28;20208;-78
2022/02/24 08:14:35;;;;;;;2.33;1.00;;;;;14.10;100785.00;;;;5051001;28;20615;-77
2022/02/24 08:17:02;;;;;;;3.25;0.75;;;;;14.10;100769.00;;;;5047270;28;20284;-80
2022/02/24 08:19:29;;;;;;;1.70;0.70;;;;;14.10;100772.00;;;;5048270;28;20204;-80
2022/02/24 08:21:58;;;;;;;3.70;0.88;;;;;14.20;100778.00;;;;5043802;28;20665;-80
2022/02/24 08:24:25;;;;;;;2.40;0.50;;;;;14.20;100773.00;;;;5051158;28;20571;-79
2022/02/24 08:26:53;;;;;;;1.45;0.70;;;;;14.20;100764.00;;;;5050098;28;20196;-80
2022/02/24 08:29:20;;;;;;;2.10;0.77;;;;;14.30;100761.00;;;;5036891;28;20200;-79
2022/02/24 08:31:47;;;;;;;3.55;1.00;;;;;14.30;100762.00;;;;5035745;28;20215;-80
2022/02/24 08:34:14;;;;;;;4.25;1.13;;;;;14.30;100756.00;;;;5051042;28;20706;-79
2022/02/24 08:36:42;;;;;;;1.83;0.60;;;;;14.30;100746.00;;;;5048603;28;20203;-79
2022/02/24 08:39:10;;;;;;;2.20;0.98;;;;;14.30;100745.00;;;;5045778;28;20222;-79
2022/02/24 08:41:40;;;;;;;2.40;0.73;;;;;14.30;100745.00;;;;5039752;28;20192;-79
2022/02/24 08:44:07;;;;;;;2.08;1.08;;;;;14.30;100739.00;;;;5038165;28;20204;-79
2022/02/24 08:46:34;;;;;;;2.88;0.85;;;;;14.30;100730.00;;;;5036849;28;20215;-79
2022/02/24 08:49:02;;;;;;;2.25;0.90;;;;;14.30;100732.00;;;;5040625;28;20192;-78
2022/02/24 08:51:29;;;;;;;3.05;0.95;;;;;14.30;100725.00;;;;5048620;28;20636;-80
2022/02/24 08:53:57;;;;;;;2.75;1.23;;;;;14.40;100721.00;;;;5050093;28;20207;-79
2022/02/24 08:56:25;;;;;;;4.38;0.95;;;;;14.40;100710.00;;;;5039910;28;20202;-80
2022/02/24 08:58:52;;;;;;;3.42;0.90;;;;;14.40;100717.00;;;;5054665;28;20203;-78
2022/02/24 09:01:20;;;;;;;3.78;0.60;;;;;14.40;100716.00;;;;5058851;28;20188;-80
2022/02/24 09:03:47;;;;;;;2.78;0.73;;;;;14.40;100708.00;;;;5050074;28;20196;-80
2022/02/24 09:06:16;;;;;;;2.78;1.30;;;;;14.40;100700.00;;;;5046155;28;20263;-80
2022/02/24 09:08:43;;;;;;;2.95;1.25;;;;;14.40;100698.00;;;;5045449;28;20203;-79
2022/02/24 09:11:11;;;;;;;3.20;1.30;;;;;14.50;100701.00;;;;5042992;28;20705;-78
2022/02/24 09:13:41;;;;;;;2.92;0.80;;;;;14.50;100696.00;;;;5039461;28;20209;-78
2022/02/24 09:16:09;;;;;;;3.00;0.60;;;;;14.50;100689.00;;;;5048892;28;20195;-79
2022/02/24 09:18:37;;;;;;;2.15;0.80;;;;;14.50;100677.00;;;;5036120;28;20228;-79
2022/02/24 09:21:04;;;;;;;2.40;0.70;;;;;14.60;100671.00;;;;5037820;28;20204;-79
2022/02/24 09:23:32;;;;;;;4.30;1.00;;;;;14.60;100668.00;;;;5040646;28;20203;-79
2022/02/24 09:25:59;;;;;;;4.63;1.40;;;;;14.70;100667.00;;;;5047880;28;20306;-80
2022/02/24 09:28:26;;;;;;;2.00;0.75;;;;;14.70;100663.00;;;;5035140;28;20203;-80
2022/02/24 09:30:55;;;;;;;3.65;0.98;;;;;14.70;100649.00;;;;5044763;28;20335;-79
2022/02/24 09:33:22;;;;;;;2.97;0.90;;;;;14.80;100644.00;;;;5046777;28;20269;-81
2022/02/24 09:35:51;;;;;;;10.60;1.25;;;;;14.80;100627.00;;;;5044991;28;20192;-80
2022/02/24 09:38:19;;;;;;;2.83;1.05;;;;;14.90;100626.00;;;;5034658;28;20227;-81
2022/02/24 09:40:51;;;;;;;4.78;1.20;;;;;14.90;100627.00;;;;5037585;28;20211;-81
2022/02/24 09:43:19;;;;;;;4.80;1.60;;;;;14.90;100627.00;;;;5040086;28;20207;-80
2022/02/24 09:45:48;;;;;;;3.58;0.93;;;;;14.90;100620.00;;;;5051611;28;20234;-80
2022/02/24 09:48:20;;;;;;;3.15;0.95;;;;;14.90;100610.00;;;;5052170;28;20207;-81
2022/02/24 09:50:51;;;;;;;2.67;0.88;;;;;15.00;100597.00;;;;5050290;28;20738;-80
2022/02/24 09:53:18;;;;;;;3.15;1.00;;;;;15.10;100597.00;;;;5050045;28;20915;-80
2022/02/24 09:55:46;;;;;;;5.68;1.58;;;;;15.10;100598.00;;;;5051495;28;20211;-80
2022/02/24 09:58:13;;;;;;;6.03;1.35;;;;;15.10;100592.00;;;;5049236;28;20733;-80
2022/02/24 10:00:41;;;;;;;4.53;1.02;;;;;15.20;100571.00;;;;5043200;28;20203;-80
2022/02/24 10:03:29;;;;;;;2.63;1.00;;;;;15.10;100560.00;;;;5030430;28;20196;-80
2022/02/24 10:05:56;;;;;;;3.50;1.30;;;;;15.20;100558.00;;;;5047954;28;20625;-79
2022/02/24 10:08:28;;;;;;;3.03;1.00;;;;;15.20;100554.00;;;;5045473;28;20222;-80
2022/02/24 10:10:57;;;;;;;3.55;1.10;;;;;15.30;100547.00;;;;5057732;28;20286;-81
2022/02/24 10:13:26;;;;;;;5.18;1.65;;;;;15.30;100549.00;;;;5049284;28;20211;-80
2022/02/24 10:15:56;;;;;;;4.65;1.48;;;;;15.40;100542.00;;;;5049686;28;20204;-81
2022/02/24 10:18:28;;;;;;;2.55;1.00;;;;;15.40;100529.00;;;;5038925;28;20227;-81
2022/02/24 10:21:00;;;;;;;3.95;1.02;;;;;15.40;100527.00;;;;5031775;28;20207;-80
2022/02/24 10:23:33;;;;;;;4.97;1.08;;;;;15.40;100518.00;;;;5040492;28;20195;-81
2022/02/24 10:26:03;;;;;;;3.15;1.55;;;;;15.50;100516.00;;;;5048113;28;20199;-80
2022/02/24 10:28:34;;;;;;;2.95;1.20;;;;;15.50;100499.00;;;;5045686;28;20674;-81
2022/02/24 10:31:08;;;;;;;4.65;1.42;;;;;15.40;100521.00;;;;5049073;28;20200;-81
2022/02/24 10:33:37;;;;;;;2.22;0.95;;;;;15.50;100503.00;;;;5046738;28;20209;-80
2022/02/24 10:36:21;;;;;;;3.45;1.13;;;;;15.40;100487.00;;;;5051033;28;20200;-77
2022/02/24 10:39:00;;;;;;;2.22;1.05;;;;;15.30;100476.00;;;;5051065;28;20227;-79
2022/02/24 10:41:29;;;;;;;6.82;1.50;;;;;15.40;100459.00;;;;5032340;28;20196;-81
2022/02/24 10:44:12;;;;;;;3.17;0.80;;;;;15.40;100461.00;;;;5044868;28;20210;-83
2022/02/24 10:46:40;;;;;;;4.03;0.82;;;;;15.50;100458.00;;;;5035335;28;20215;-84
2022/02/24 10:49:12;;;;;;;4.45;0.90;;;;;15.50;100453.00;;;;5029716;28;20204;-83
2022/02/24 10:51:42;;;;;;;1.67;1.00;;;;;15.60;100456.00;;;;5041618;28;20223;-84
2022/02/24 10:54:11;;;;;;;4.28;1.38;;;;;15.70;100460.00;;;;5049926;28;20602;-84
2022/02/24 10:56:39;;;;;;;3.08;1.00;;;;;15.80;100461.00;;;;5049772;28;20187;-84
2022/02/24 10:59:08;;;;;;;4.93;0.80;;;;;15.90;100458.00;;;;5048032;28;20207;-84
2022/02/24 11:01:37;;;;;;;2.63;1.17;;;;;16.00;100452.00;;;;5049363;28;20196;-84
2022/02/24 11:04:06;;;;;;;2.97;0.93;;;;;16.10;100448.00;;;;5049244;28;20207;-84
2022/02/24 11:06:36;;;;;;;4.32;1.58;;;;;16.20;100451.00;;;;5049449;28;20298;-82
2022/02/24 11:09:06;;;;;;;4.03;1.00;;;;;16.30;100445.00;;;;5048555;28;21138;-84
2022/02/24 11:11:35;;;;;;;5.28;1.02;;;;;16.50;100435.00;;;;5038004;28;20224;-84
2022/02/24 11:14:05;;;;;;;3.38;0.77;;;;;16.60;100434.00;;;;5030144;28;20623;-83
2022/02/24 11:16:33;;;;;;;2.97;1.10;;;;;16.70;100438.00;;;;5054059;28;20662;-84
2022/02/24 11:19:01;;;;;;;2.65;1.15;;;;;16.70;100426.00;;;;5033201;28;20227;-83
2022/02/24 11:21:30;;;;;;;4.47;1.08;;;;;16.80;100415.00;;;;5048965;28;20199;-85
2022/02/24 11:23:59;;;;;;;3.33;0.88;;;;;16.80;100426.00;;;;5049033;28;20211;-85
2022/02/24 11:26:55;;;;;;;4.13;0.98;;;;;16.70;100400.00;;;;5048246;28;20207;-83
2022/02/24 11:29:29;;;;;;;2.50;0.70;;;;;16.80;100395.00;;;;5048921;28;20219;-85
2022/02/24 11:32:04;;;;;;;0.82;0.40;;;;;16.80;100385.00;;;;5046724;28;20631;-84
2022/02/24 11:35:00;;;;;;;3.75;1.13;;;;;16.80;100383.00;;;;5049887;28;20206;-85
2022/02/24 11:37:30;;;;;;;4.97;1.20;;;;;16.90;100355.00;;;;5023409;28;20200;-83
2022/02/24 11:40:02;;;;;;;6.47;1.33;;;;;16.90;100354.00;;;;5029275;28;20196;-83
2022/02/24 11:42:32;;;;;;;3.45;1.00;;;;;17.00;100361.00;;;;5042928;28;20576;-85
2022/02/24 11:45:00;;;;;;;4.22;1.08;;;;;17.10;100352.00;;;;5045864;28;20238;-83
2022/02/24 11:47:28;;;;;;;5.00;1.50;;;;;17.10;100342.00;;;;5049920;28;20203;-83
2022/02/24 11:50:11;;;;;;;2.30;1.10;;;;;17.10;100339.00;;;;5039459;28;20287;-82
2022/02/24 11:52:59;;;;;;;3.17;1.13;;;;;17.10;100346.00;;;;5027921;28;20227;-81
2022/02/24 11:55:44;;;;;;;0.93;0.60;;;;;17.20;100325.00;;;;5024636;28;20196;-83
2022/02/24 11:58:35;;;;;;;1.98;0.65;;;;;17.20;100308.00;;;;5030146;28;20196;-82
2022/02/24 12:01:23;;;;;;;5.72;1.55;;;;;17.20;100310.00;;;;5029196;28;20196;-82
2022/02/24 12:04:17;;;;;;;2.55;0.60;;;;;17.20;100300.00;;;;5049956;28;20590;-82
2022/02/24 12:06:56;;;;;;;2.88;0.90;;;;;17.20;100308.00;;;;5051163;28;20204;-82
2022/02/24 12:09:28;;;;;;;3.13;0.85;;;;;17.20;100294.00;;;;5053674;28;20560;-83
2022/02/24 12:11:58;;;;;;;4.28;0.85;;;;;17.20;100285.00;;;;5067514;28;20567;-82
2022/02/24 12:14:47;;;;;;;1.73;0.77;;;;;17.10;100280.00;;;;5053538;28;20223;-84
2022/02/24 12:17:29;;;;;;;1.45;0.60;;;;;17.20;100276.00;;;;5040439;28;20238;-84
2022/02/24 12:20:00;;;;;;;4.95;0.88;;;;;17.20;100256.00;;;;5040351;28;20544;-82